sensor_id;sensor_type;location;lat;lon;timestamp;pressure;altitude;pressure_sealevel;temperature;humidity
22964;BME280;11648;49.306;6.934;2023-06-10T00:02:02;98021.97;;;24.06;41.31
22964;BME280;11648;49.306;6.934;2023-06-10T00:04:30;98026.88;;;24.00;41.53
22964;BME280;11648;49.306;6.934;2023-06-10T00:06:57;98027.75;;;24.00;41.71
22964;BME280;11648;49.306;6.934;2023-06-10T00:09:24;98030.44;;;24.00;41.97
22964;BME280;11648;49.306;6.934;2023-06-10T00:11:51;98021.75;;;23.97;41.90
22964;BME280;11648;49.306;6.934;2023-06-10T00:14:17;98026.38;;;23.95;41.83
22964;BME280;11648;49.306;6.934;2023-06-10T00:16:44;98024.88;;;23.91;41.91
22964;BME280;11648;49.306;6.934;2023-06-10T00:19:12;98024.47;;;23.84;42.14
22964;BME280;11648;49.306;6.934;2023-06-10T00:21:40;98020.38;;;23.79;42.32
22964;BME280;11648;49.306;6.934;2023-06-10T00:24:08;98026.72;;;23.78;42.39
22964;BME280;11648;49.306;6.934;2023-06-10T00:26:40;98019.84;;;23.74;42.27
22964;BME280;11648;49.306;6.934;2023-06-10T00:29:08;98019.63;;;23.64;42.77
22964;BME280;11648;49.306;6.934;2023-06-10T00:31:37;98026.09;;;23.74;42.55
22964;BME280;11648;49.306;6.934;2023-06-10T00:34:08;98020.47;;;23.65;42.61
22964;BME280;11648;49.306;6.934;2023-06-10T00:36:35;98024.56;;;23.57;42.57
22964;BME280;11648;49.306;6.934;2023-06-10T00:39:02;98020.94;;;23.58;43.13
22964;BME280;11648;49.306;6.934;2023-06-10T00:41:31;98029.22;;;23.55;43.02
22964;BME280;11648;49.306;6.934;2023-06-10T00:44:00;98018.13;;;23.47;42.84
22964;BME280;11648;49.306;6.934;2023-06-10T00:46:27;98018.47;;;23.55;43.24
22964;BME280;11648;49.306;6.934;2023-06-10T00:48:55;98025.00;;;23.64;42.82
22964;BME280;11648;49.306;6.934;2023-06-10T00:51:22;98011.44;;;23.53;43.10
22964;BME280;11648;49.306;6.934;2023-06-10T00:53:49;98021.38;;;23.52;43.30
22964;BME280;11648;49.306;6.934;2023-06-10T00:56:16;98018.69;;;23.52;42.99
22964;BME280;11648;49.306;6.934;2023-06-10T00:58:43;98026.09;;;23.49;43.62
22964;BME280;11648;49.306;6.934;2023-06-10T01:01:10;98020.94;;;23.58;42.92
22964;BME280;11648;49.306;6.934;2023-06-10T01:03:39;98019.53;;;23.66;42.91
22964;BME280;11648;49.306;6.934;2023-06-10T01:06:17;98020.25;;;23.68;43.12
22964;BME280;11648;49.306;6.934;2023-06-10T01:08:52;98023.53;;;23.60;42.99
22964;BME280;11648;49.306;6.934;2023-06-10T01:11:29;98024.25;;;23.49;43.15
22964;BME280;11648;49.306;6.934;2023-06-10T01:14:00;98013.50;;;23.49;43.32
22964;BME280;11648;49.306;6.934;2023-06-10T01:16:27;98018.22;;;23.46;43.62
22964;BME280;11648;49.306;6.934;2023-06-10T01:18:55;98023.94;;;23.41;43.38
22964;BME280;11648;49.306;6.934;2023-06-10T01:21:23;98021.31;;;23.40;43.38
22964;BME280;11648;49.306;6.934;2023-06-10T01:23:52;98019.06;;;23.34;43.89
22964;BME280;11648;49.306;6.934;2023-06-10T01:26:23;98018.03;;;23.49;43.60
22964;BME280;11648;49.306;6.934;2023-06-10T01:29:00;98012.38;;;23.39;43.70
22964;BME280;11648;49.306;6.934;2023-06-10T01:34:51;98011.00;;;23.34;44.00
22964;BME280;11648;49.306;6.934;2023-06-10T01:37:19;98018.84;;;23.37;43.71
22964;BME280;11648;49.306;6.934;2023-06-10T01:39:48;98016.25;;;23.35;43.97
22964;BME280;11648;49.306;6.934;2023-06-10T01:42:17;98028.28;;;23.30;43.79
22964;BME280;11648;49.306;6.934;2023-06-10T01:44:44;98029.78;;;23.21;44.25
22964;BME280;11648;49.306;6.934;2023-06-10T01:47:10;98026.44;;;23.18;44.26
22964;BME280;11648;49.306;6.934;2023-06-10T01:49:37;98034.41;;;23.19;44.42
22964;BME280;11648;49.306;6.934;2023-06-10T01:52:06;98036.78;;;23.24;44.36
22964;BME280;11648;49.306;6.934;2023-06-10T01:54:33;98031.16;;;23.14;44.16
22964;BME280;11648;49.306;6.934;2023-06-10T01:57:01;98029.25;;;23.16;44.33
22964;BME280;11648;49.306;6.934;2023-06-10T01:59:28;98032.94;;;23.28;44.38
22964;BME280;11648;49.306;6.934;2023-06-10T02:01:55;98031.50;;;23.09;44.36
22964;BME280;11648;49.306;6.934;2023-06-10T02:04:22;98034.72;;;23.14;44.42
22964;BME280;11648;49.306;6.934;2023-06-10T02:06:48;98037.81;;;23.08;44.55
22964;BME280;11648;49.306;6.934;2023-06-10T02:09:17;98043.31;;;23.20;44.46
22964;BME280;11648;49.306;6.934;2023-06-10T02:11:45;98045.38;;;23.16;44.40
22964;BME280;11648;49.306;6.934;2023-06-10T02:14:12;98045.25;;;23.18;44.29
22964;BME280;11648;49.306;6.934;2023-06-10T02:16:39;98050.22;;;23.24;44.43
22964;BME280;11648;49.306;6.934;2023-06-10T02:19:06;98047.50;;;23.11;44.67
22964;BME280;11648;49.306;6.934;2023-06-10T02:21:34;98051.25;;;23.08;44.51
22964;BME280;11648;49.306;6.934;2023-06-10T02:24:01;98046.84;;;23.07;44.38
22964;BME280;11648;49.306;6.934;2023-06-10T02:26:28;98047.56;;;22.97;44.98
22964;BME280;11648;49.306;6.934;2023-06-10T02:28:59;98055.91;;;22.92;45.02
22964;BME280;11648;49.306;6.934;2023-06-10T02:31:26;98052.94;;;22.97;44.82
22964;BME280;11648;49.306;6.934;2023-06-10T02:33:55;98053.34;;;22.91;44.81
22964;BME280;11648;49.306;6.934;2023-06-10T02:36:23;98052.56;;;22.89;45.34
22964;BME280;11648;49.306;6.934;2023-06-10T02:38:50;98048.63;;;22.94;44.84
22964;BME280;11648;49.306;6.934;2023-06-10T02:41:17;98054.94;;;22.81;44.89
22964;BME280;11648;49.306;6.934;2023-06-10T02:43:45;98051.28;;;22.82;45.54
22964;BME280;11648;49.306;6.934;2023-06-10T02:46:12;98050.63;;;22.78;45.30
22964;BME280;11648;49.306;6.934;2023-06-10T02:48:45;98055.59;;;22.84;45.64
22964;BME280;11648;49.306;6.934;2023-06-10T02:51:18;98067.16;;;22.85;45.76
22964;BME280;11648;49.306;6.934;2023-06-10T02:53:47;98054.94;;;22.81;45.81
22964;BME280;11648;49.306;6.934;2023-06-10T02:56:16;98062.41;;;22.76;46.34
22964;BME280;11648;49.306;6.934;2023-06-10T02:58:43;98062.16;;;22.66;46.26
22964;BME280;11648;49.306;6.934;2023-06-10T03:01:12;98063.00;;;22.67;46.64
22964;BME280;11648;49.306;6.934;2023-06-10T03:03:56;98065.13;;;22.61;47.41
22964;BME280;11648;49.306;6.934;2023-06-10T03:06:23;98063.50;;;22.59;47.27
22964;BME280;11648;49.306;6.934;2023-06-10T03:08:53;98068.22;;;22.55;47.85
22964;BME280;11648;49.306;6.934;2023-06-10T03:11:20;98074.94;;;22.48;47.80
22964;BME280;11648;49.306;6.934;2023-06-10T03:13:48;98078.97;;;22.41;48.15
22964;BME280;11648;49.306;6.934;2023-06-10T03:16:17;98072.47;;;22.31;48.17
22964;BME280;11648;49.306;6.934;2023-06-10T03:18:45;98074.97;;;22.34;48.36
22964;BME280;11648;49.306;6.934;2023-06-10T03:21:12;98078.91;;;22.29;48.42
22964;BME280;11648;49.306;6.934;2023-06-10T03:23:39;98083.78;;;22.22;48.30
22964;BME280;11648;49.306;6.934;2023-06-10T03:26:06;98079.13;;;22.11;48.68
22964;BME280;11648;49.306;6.934;2023-06-10T03:28:36;98087.72;;;22.02;49.06
22964;BME280;11648;49.306;6.934;2023-06-10T03:31:03;98086.31;;;21.97;49.31
22964;BME280;11648;49.306;6.934;2023-06-10T03:33:31;98093.69;;;21.93;49.69
22964;BME280;11648;49.306;6.934;2023-06-10T03:35:59;98086.69;;;21.91;49.43
22964;BME280;11648;49.306;6.934;2023-06-10T03:38:26;98091.19;;;21.90;49.66
22964;BME280;11648;49.306;6.934;2023-06-10T03:40:53;98100.16;;;21.89;49.80
22964;BME280;11648;49.306;6.934;2023-06-10T03:43:20;98101.22;;;21.87;50.12
22964;BME280;11648;49.306;6.934;2023-06-10T03:45:49;98102.81;;;21.89;50.00
22964;BME280;11648;49.306;6.934;2023-06-10T03:48:16;98103.63;;;21.91;49.90
22964;BME280;11648;49.306;6.934;2023-06-10T03:50:47;98106.22;;;21.93;49.88
22964;BME280;11648;49.306;6.934;2023-06-10T03:53:17;98106.81;;;21.98;50.02
22964;BME280;11648;49.306;6.934;2023-06-10T03:55:44;98117.31;;;22.01;49.62
22964;BME280;11648;49.306;6.934;2023-06-10T03:58:13;98111.97;;;22.01;49.69
22964;BME280;11648;49.306;6.934;2023-06-10T04:00:42;98116.06;;;22.06;49.77
22964;BME280;11648;49.306;6.934;2023-06-10T04:03:09;98119.06;;;22.02;49.88
22964;BME280;11648;49.306;6.934;2023-06-10T04:05:45;98122.50;;;22.04;49.81
22964;BME280;11648;49.306;6.934;2023-06-10T04:08:12;98126.31;;;22.00;50.06
22964;BME280;11648;49.306;6.934;2023-06-10T04:10:38;98124.41;;;22.02;50.15
22964;BME280;11648;49.306;6.934;2023-06-10T04:13:05;98118.28;;;22.00;50.22
22964;BME280;11648;49.306;6.934;2023-06-10T04:15:38;98124.97;;;22.07;50.17
22964;BME280;11648;49.306;6.934;2023-06-10T04:18:09;98115.19;;;22.06;50.41
22964;BME280;11648;49.306;6.934;2023-06-10T04:20:36;98130.34;;;22.07;50.54
22964;BME280;11648;49.306;6.934;2023-06-10T04:23:03;98126.50;;;22.11;50.83
22964;BME280;11648;49.306;6.934;2023-06-10T04:25:30;98121.34;;;22.08;50.78
22964;BME280;11648;49.306;6.934;2023-06-10T04:27:57;98124.41;;;22.02;51.42
22964;BME280;11648;49.306;6.934;2023-06-10T04:30:24;98130.53;;;22.04;51.58
22964;BME280;11648;49.306;6.934;2023-06-10T04:32:51;98133.41;;;22.01;51.79
22964;BME280;11648;49.306;6.934;2023-06-10T04:35:19;98138.56;;;22.04;52.17
22964;BME280;11648;49.306;6.934;2023-06-10T04:37:47;98133.41;;;22.01;52.29
22964;BME280;11648;49.306;6.934;2023-06-10T04:40:14;98128.91;;;22.01;51.65
22964;BME280;11648;49.306;6.934;2023-06-10T04:42:43;98131.09;;;21.95;51.31
22964;BME280;11648;49.306;6.934;2023-06-10T04:45:10;98132.16;;;21.92;52.08
22964;BME280;11648;49.306;6.934;2023-06-10T04:47:38;98136.56;;;21.93;51.80
22964;BME280;11648;49.306;6.934;2023-06-10T04:50:06;98127.09;;;22.02;52.25
22964;BME280;11648;49.306;6.934;2023-06-10T04:52:33;98129.78;;;22.16;52.40
22964;BME280;11648;49.306;6.934;2023-06-10T04:55:00;98132.06;;;22.36;51.11
22964;BME280;11648;49.306;6.934;2023-06-10T04:57:27;98129.25;;;22.52;50.43
22964;BME280;11648;49.306;6.934;2023-06-10T04:59:53;98127.59;;;22.63;50.24
22964;BME280;11648;49.306;6.934;2023-06-10T05:02:20;98133.28;;;22.73;50.09
22964;BME280;11648;49.306;6.934;2023-06-10T05:04:47;98130.53;;;22.87;50.38
22964;BME280;11648;49.306;6.934;2023-06-10T05:07:14;98128.22;;;22.95;50.36
22964;BME280;11648;49.306;6.934;2023-06-10T05:09:41;98128.41;;;22.92;49.58
22964;BME280;11648;49.306;6.934;2023-06-10T05:12:08;98128.09;;;22.97;48.80
22964;BME280;11648;49.306;6.934;2023-06-10T05:14:35;98126.94;;;23.01;49.10
22964;BME280;11648;49.306;6.934;2023-06-10T05:17:02;98126.97;;;23.13;48.90
22964;BME280;11648;49.306;6.934;2023-06-10T05:19:29;98130.72;;;23.38;48.39
22964;BME280;11648;49.306;6.934;2023-06-10T05:21:56;98124.53;;;23.50;48.37
22964;BME280;11648;49.306;6.934;2023-06-10T05:24:23;98131.66;;;23.64;48.33
22964;BME280;11648;49.306;6.934;2023-06-10T05:26:50;98127.81;;;23.80;48.02
22964;BME280;11648;49.306;6.934;2023-06-10T05:29:16;98131.88;;;23.98;47.72
22964;BME280;11648;49.306;6.934;2023-06-10T05:31:43;98136.38;;;24.10;47.49
22964;BME280;11648;49.306;6.934;2023-06-10T05:34:10;98134.06;;;24.31;46.83
22964;BME280;11648;49.306;6.934;2023-06-10T05:36:37;98128.88;;;24.41;47.10
22964;BME280;11648;49.306;6.934;2023-06-10T05:39:04;98135.50;;;24.61;46.68
22964;BME280;11648;49.306;6.934;2023-06-10T05:41:31;98133.50;;;24.75;46.08
22964;BME280;11648;49.306;6.934;2023-06-10T05:43:58;98131.97;;;24.96;45.93
22964;BME280;11648;49.306;6.934;2023-06-10T05:46:25;98130.41;;;25.05;45.84
22964;BME280;11648;49.306;6.934;2023-06-10T05:48:51;98124.94;;;25.06;44.90
22964;BME280;11648;49.306;6.934;2023-06-10T05:51:18;98129.63;;;25.16;44.69
22964;BME280;11648;49.306;6.934;2023-06-10T05:53:45;98128.00;;;25.13;45.63
22964;BME280;11648;49.306;6.934;2023-06-10T05:56:14;98124.63;;;24.98;45.25
22964;BME280;11648;49.306;6.934;2023-06-10T05:58:41;98128.69;;;25.04;44.55
22964;BME280;11648;49.306;6.934;2023-06-10T06:01:07;98118.22;;;25.12;43.92
22964;BME280;11648;49.306;6.934;2023-06-10T06:03:34;98124.44;;;25.36;44.35
22964;BME280;11648;49.306;6.934;2023-06-10T06:06:02;98124.69;;;25.57;43.24
22964;BME280;11648;49.306;6.934;2023-06-10T06:08:30;98117.63;;;25.78;43.32
22964;BME280;11648;49.306;6.934;2023-06-10T06:10:57;98119.59;;;25.87;42.61
22964;BME280;11648;49.306;6.934;2023-06-10T06:13:24;98118.28;;;26.04;41.33
22964;BME280;11648;49.306;6.934;2023-06-10T06:15:50;98107.75;;;26.23;42.17
22964;BME280;11648;49.306;6.934;2023-06-10T06:18:17;98108.88;;;26.32;41.18
22964;BME280;11648;49.306;6.934;2023-06-10T06:20:45;98112.44;;;26.32;40.48
22964;BME280;11648;49.306;6.934;2023-06-10T06:23:12;98111.31;;;26.46;41.26
22964;BME280;11648;49.306;6.934;2023-06-10T06:25:39;98109.22;;;26.61;40.32
22964;BME280;11648;49.306;6.934;2023-06-10T06:28:06;98105.72;;;26.81;40.58
22964;BME280;11648;49.306;6.934;2023-06-10T06:30:34;98110.75;;;27.08;40.18
22964;BME280;11648;49.306;6.934;2023-06-10T06:33:01;98108.66;;;27.11;39.69
22964;BME280;11648;49.306;6.934;2023-06-10T06:35:32;98104.72;;;27.36;38.96
22964;BME280;11648;49.306;6.934;2023-06-10T06:38:00;98112.69;;;27.37;38.76
22964;BME280;11648;49.306;6.934;2023-06-10T06:40:28;98108.63;;;27.54;39.78
22964;BME280;11648;49.306;6.934;2023-06-10T06:42:55;98109.59;;;27.74;39.95
22964;BME280;11648;49.306;6.934;2023-06-10T06:45:40;98109.06;;;27.59;38.44
22964;BME280;11648;49.306;6.934;2023-06-10T06:48:07;98110.25;;;27.66;38.78
22964;BME280;11648;49.306;6.934;2023-06-10T06:50:34;98108.28;;;27.89;38.15
22964;BME280;11648;49.306;6.934;2023-06-10T06:53:01;98112.44;;;27.93;37.98
22964;BME280;11648;49.306;6.934;2023-06-10T06:55:27;98114.41;;;27.70;37.44
22964;BME280;11648;49.306;6.934;2023-06-10T06:57:54;98110.47;;;27.42;38.15
22964;BME280;11648;49.306;6.934;2023-06-10T07:00:22;98116.34;;;27.79;38.20
22964;BME280;11648;49.306;6.934;2023-06-10T07:02:49;98112.44;;;27.93;37.80
22964;BME280;11648;49.306;6.934;2023-06-10T07:05:15;98111.53;;;27.83;37.18
22964;BME280;11648;49.306;6.934;2023-06-10T07:07:43;98106.69;;;27.86;37.66
22964;BME280;11648;49.306;6.934;2023-06-10T07:10:10;98111.13;;;28.38;37.17
22964;BME280;11648;49.306;6.934;2023-06-10T07:12:36;98108.84;;;28.74;36.07
22964;BME280;11648;49.306;6.934;2023-06-10T07:15:03;98110.91;;;28.51;36.22
22964;BME280;11648;49.306;6.934;2023-06-10T07:17:33;98131.19;;;28.26;36.88
22964;BME280;11648;49.306;6.934;2023-06-10T07:20:01;98115.25;;;28.33;36.97
22964;BME280;11648;49.306;6.934;2023-06-10T07:22:28;98112.38;;;28.65;36.43
22964;BME280;11648;49.306;6.934;2023-06-10T07:24:55;98121.44;;;28.44;36.35
22964;BME280;11648;49.306;6.934;2023-06-10T07:27:22;98111.56;;;28.74;36.65
22964;BME280;11648;49.306;6.934;2023-06-10T07:29:49;98116.06;;;29.04;35.99
22964;BME280;11648;49.306;6.934;2023-06-10T07:32:16;98116.19;;;28.92;35.55
22964;BME280;11648;49.306;6.934;2023-06-10T07:34:45;98115.47;;;29.00;35.45
22964;BME280;11648;49.306;6.934;2023-06-10T07:37:11;98115.13;;;29.33;35.20
22964;BME280;11648;49.306;6.934;2023-06-10T07:39:38;98100.69;;;29.42;34.91
22964;BME280;11648;49.306;6.934;2023-06-10T07:42:05;98111.28;;;29.26;35.40
22964;BME280;11648;49.306;6.934;2023-06-10T07:44:32;98106.56;;;29.28;34.46
22964;BME280;11648;49.306;6.934;2023-06-10T07:46:59;98109.94;;;29.21;34.38
22964;BME280;11648;49.306;6.934;2023-06-10T07:49:26;98116.00;;;29.43;34.37
22964;BME280;11648;49.306;6.934;2023-06-10T07:51:54;98109.53;;;29.73;34.29
22964;BME280;11648;49.306;6.934;2023-06-10T07:54:21;98109.66;;;30.10;34.35
22964;BME280;11648;49.306;6.934;2023-06-10T07:56:48;98108.41;;;30.32;33.66
22964;BME280;11648;49.306;6.934;2023-06-10T07:59:15;98108.31;;;30.24;33.54
22964;BME280;11648;49.306;6.934;2023-06-10T08:01:42;98111.09;;;30.51;33.32
22964;BME280;11648;49.306;6.934;2023-06-10T08:04:09;98104.13;;;30.94;32.61
22964;BME280;11648;49.306;6.934;2023-06-10T08:06:36;98111.03;;;31.15;32.39
22964;BME280;11648;49.306;6.934;2023-06-10T08:09:03;98107.53;;;31.05;32.51
22964;BME280;11648;49.306;6.934;2023-06-10T08:11:30;98101.25;;;31.40;32.67
22964;BME280;11648;49.306;6.934;2023-06-10T08:13:57;98102.06;;;31.68;32.31
22964;BME280;11648;49.306;6.934;2023-06-10T08:16:24;98103.69;;;31.78;31.30
22964;BME280;11648;49.306;6.934;2023-06-10T08:18:51;98102.31;;;31.57;31.73
22964;BME280;11648;49.306;6.934;2023-06-10T08:21:21;98103.16;;;31.75;32.21
22964;BME280;11648;49.306;6.934;2023-06-10T08:23:52;98111.91;;;31.16;32.06
22964;BME280;11648;49.306;6.934;2023-06-10T08:26:19;98099.94;;;31.79;32.27
22964;BME280;11648;49.306;6.934;2023-06-10T08:28:46;98105.47;;;31.70;31.42
22964;BME280;11648;49.306;6.934;2023-06-10T08:31:13;98109.78;;;32.50;31.17
22964;BME280;11648;49.306;6.934;2023-06-10T08:33:46;98103.59;;;32.65;30.32
22964;BME280;11648;49.306;6.934;2023-06-10T08:36:48;98099.34;;;33.13;30.20
22964;BME280;11648;49.306;6.934;2023-06-10T08:39:19;98088.78;;;33.18;30.31
22964;BME280;11648;49.306;6.934;2023-06-10T08:44:42;98107.53;;;32.71;29.78
22964;BME280;11648;49.306;6.934;2023-06-10T08:47:13;98105.72;;;32.88;30.44
22964;BME280;11648;49.306;6.934;2023-06-10T08:49:44;98105.66;;;32.71;30.05
22964;BME280;11648;49.306;6.934;2023-06-10T08:52:16;98105.72;;;32.88;30.34
22964;BME280;11648;49.306;6.934;2023-06-10T08:54:49;98107.41;;;33.39;30.26
22964;BME280;11648;49.306;6.934;2023-06-10T08:57:19;98101.75;;;33.24;29.60
22964;BME280;11648;49.306;6.934;2023-06-10T08:59:49;98095.44;;;33.15;29.86
22964;BME280;11648;49.306;6.934;2023-06-10T09:02:16;98089.38;;;33.70;29.50
22964;BME280;11648;49.306;6.934;2023-06-10T09:04:47;98102.59;;;34.46;29.21
22964;BME280;11648;49.306;6.934;2023-06-10T09:07:15;98093.53;;;34.53;28.20
22964;BME280;11648;49.306;6.934;2023-06-10T09:09:43;98100.84;;;34.61;28.98
22964;BME280;11648;49.306;6.934;2023-06-10T09:12:13;98094.53;;;34.99;27.92
22964;BME280;11648;49.306;6.934;2023-06-10T09:14:41;98096.09;;;34.55;27.64
22964;BME280;11648;49.306;6.934;2023-06-10T09:17:08;98099.00;;;35.00;28.40
22964;BME280;11648;49.306;6.934;2023-06-10T09:19:36;98088.16;;;33.89;28.45
22964;BME280;11648;49.306;6.934;2023-06-10T09:22:04;98096.81;;;34.41;28.17
22964;BME280;11648;49.306;6.934;2023-06-10T09:24:32;98102.31;;;34.33;27.76
22964;BME280;11648;49.306;6.934;2023-06-10T09:27:07;98091.28;;;35.12;27.74
22964;BME280;11648;49.306;6.934;2023-06-10T09:29:47;98087.63;;;35.11;27.51
22964;BME280;11648;49.306;6.934;2023-06-10T09:32:20;98088.00;;;35.16;27.26
22964;BME280;11648;49.306;6.934;2023-06-10T09:34:47;98099.63;;;34.80;27.41
22964;BME280;11648;49.306;6.934;2023-06-10T09:37:23;98090.19;;;35.44;26.91
22964;BME280;11648;49.306;6.934;2023-06-10T09:40:07;98086.34;;;35.98;26.92
22964;BME280;11648;49.306;6.934;2023-06-10T09:42:39;98092.19;;;36.33;26.30
22964;BME280;11648;49.306;6.934;2023-06-10T09:45:07;98078.47;;;36.91;25.58
22964;BME280;11648;49.306;6.934;2023-06-10T09:47:34;98070.81;;;37.58;25.02
22964;BME280;11648;49.306;6.934;2023-06-10T09:50:01;98072.66;;;37.94;24.13
22964;BME280;11648;49.306;6.934;2023-06-10T09:52:29;98070.97;;;38.83;23.92
22964;BME280;11648;49.306;6.934;2023-06-10T09:55:00;98067.50;;;39.22;22.73
22964;BME280;11648;49.306;6.934;2023-06-10T09:57:33;98062.38;;;40.25;22.24
22964;BME280;11648;49.306;6.934;2023-06-10T10:00:05;98071.03;;;40.62;21.72
22964;BME280;11648;49.306;6.934;2023-06-10T10:02:53;98069.19;;;40.16;22.78
22964;BME280;11648;49.306;6.934;2023-06-10T10:05:21;98062.78;;;40.03;22.53
22964;BME280;11648;49.306;6.934;2023-06-10T10:07:49;98063.19;;;40.06;21.49
22964;BME280;11648;49.306;6.934;2023-06-10T10:10:19;98060.63;;;39.65;21.68
22964;BME280;11648;49.306;6.934;2023-06-10T10:12:47;98056.19;;;40.10;20.93
22964;BME280;11648;49.306;6.934;2023-06-10T10:15:16;98058.44;;;39.28;21.08
22964;BME280;11648;49.306;6.934;2023-06-10T10:17:59;98052.56;;;37.72;22.73
22964;BME280;11648;49.306;6.934;2023-06-10T10:20:33;98071.66;;;37.02;23.52
22964;BME280;11648;49.306;6.934;2023-06-10T10:23:03;98061.09;;;37.56;23.45
22964;BME280;11648;49.306;6.934;2023-06-10T10:25:34;98053.97;;;39.27;21.95
22964;BME280;11648;49.306;6.934;2023-06-10T10:28:10;98050.22;;;39.47;21.33
22964;BME280;11648;49.306;6.934;2023-06-10T10:30:42;98058.03;;;39.37;20.77
22964;BME280;11648;49.306;6.934;2023-06-10T10:33:19;98053.69;;;40.15;20.32
22964;BME280;11648;49.306;6.934;2023-06-10T10:35:47;98058.97;;;40.36;20.26
22964;BME280;11648;49.306;6.934;2023-06-10T10:38:14;98049.84;;;40.29;20.04
22964;BME280;11648;49.306;6.934;2023-06-10T10:40:41;98049.75;;;41.26;19.06
22964;BME280;11648;49.306;6.934;2023-06-10T10:43:10;98044.06;;;41.84;18.32
22964;BME280;11648;49.306;6.934;2023-06-10T10:45:37;98035.19;;;43.64;17.71
22964;BME280;11648;49.306;6.934;2023-06-10T10:48:11;98047.59;;;43.73;16.32
22964;BME280;11648;49.306;6.934;2023-06-10T10:50:39;98054.22;;;42.58;17.57
22964;BME280;11648;49.306;6.934;2023-06-10T10:53:07;98052.16;;;42.53;18.02
22964;BME280;11648;49.306;6.934;2023-06-10T10:55:34;98054.25;;;40.50;19.06
22964;BME280;11648;49.306;6.934;2023-06-10T10:58:08;98048.56;;;39.92;20.68
22964;BME280;11648;49.306;6.934;2023-06-10T11:00:36;98046.44;;;40.08;19.57
22964;BME280;11648;49.306;6.934;2023-06-10T11:03:05;98035.19;;;41.06;19.01
22964;BME280;11648;49.306;6.934;2023-06-10T11:05:38;98027.66;;;40.75;18.04
22964;BME280;11648;49.306;6.934;2023-06-10T11:08:05;98023.25;;;41.50;17.44
22964;BME280;11648;49.306;6.934;2023-06-10T11:10:37;98023.16;;;42.13;17.88
22964;BME280;11648;49.306;6.934;2023-06-10T11:13:15;98029.69;;;42.98;17.88
22964;BME280;11648;49.306;6.934;2023-06-10T11:15:46;98023.94;;;43.29;16.77
22964;BME280;11648;49.306;6.934;2023-06-10T11:34:02;98031.78;;;44.15;16.03
22964;BME280;11648;49.306;6.934;2023-06-10T11:36:30;98032.53;;;43.69;16.73
22964;BME280;11648;49.306;6.934;2023-06-10T11:38:59;98025.97;;;44.16;16.71
22964;BME280;11648;49.306;6.934;2023-06-10T11:41:27;98019.97;;;44.19;15.80
22964;BME280;11648;49.306;6.934;2023-06-10T11:43:56;98024.16;;;44.10;16.32
22964;BME280;11648;49.306;6.934;2023-06-10T11:46:27;98026.59;;;44.30;16.21
22964;BME280;11648;49.306;6.934;2023-06-10T11:48:56;98026.78;;;43.11;16.90
22964;BME280;11648;49.306;6.934;2023-06-10T11:51:28;98031.59;;;41.06;18.40
22964;BME280;11648;49.306;6.934;2023-06-10T11:53:56;98036.97;;;41.38;18.74
22964;BME280;11648;49.306;6.934;2023-06-10T11:56:27;98032.41;;;42.07;17.59
22964;BME280;11648;49.306;6.934;2023-06-10T12:01:21;98026.88;;;40.55;18.62
22964;BME280;11648;49.306;6.934;2023-06-10T12:04:05;98023.31;;;41.37;18.00
22964;BME280;11648;49.306;6.934;2023-06-10T12:09:06;98040.94;;;38.94;20.66
22964;BME280;11648;49.306;6.934;2023-06-10T12:11:51;98030.63;;;38.00;21.10
22964;BME280;11648;49.306;6.934;2023-06-10T12:14:50;98035.19;;;37.08;22.09
22964;BME280;11648;49.306;6.934;2023-06-10T12:19:59;98038.56;;;35.63;23.54
22964;BME280;11648;49.306;6.934;2023-06-10T12:22:26;98037.00;;;34.85;23.66
22964;BME280;11648;49.306;6.934;2023-06-10T12:24:58;98032.13;;;34.72;24.51
22964;BME280;11648;49.306;6.934;2023-06-10T12:27:30;98027.41;;;35.42;23.93
22964;BME280;11648;49.306;6.934;2023-06-10T12:29:58;98024.44;;;35.89;23.31
22964;BME280;11648;49.306;6.934;2023-06-10T12:32:39;98027.28;;;35.81;22.76
22964;BME280;11648;49.306;6.934;2023-06-10T12:35:08;98027.34;;;35.50;24.47
22964;BME280;11648;49.306;6.934;2023-06-10T12:37:36;98028.19;;;35.28;23.97
22964;BME280;11648;49.306;6.934;2023-06-10T12:40:08;98044.78;;;34.96;24.55
22964;BME280;11648;49.306;6.934;2023-06-10T12:42:36;98034.53;;;34.67;24.65
22964;BME280;11648;49.306;6.934;2023-06-10T12:45:05;98037.56;;;34.33;24.88
22964;BME280;11648;49.306;6.934;2023-06-10T12:47:37;98035.41;;;33.88;25.52
22964;BME280;11648;49.306;6.934;2023-06-10T12:50:08;98039.34;;;33.78;26.18
22964;BME280;11648;49.306;6.934;2023-06-10T12:52:36;98034.91;;;34.64;25.74
22964;BME280;11648;49.306;6.934;2023-06-10T12:55:04;98036.16;;;34.84;25.08
22964;BME280;11648;49.306;6.934;2023-06-10T12:57:31;98037.16;;;34.91;24.88
22964;BME280;11648;49.306;6.934;2023-06-10T12:59:58;98017.06;;;34.76;24.86
22964;BME280;11648;49.306;6.934;2023-06-10T13:02:32;98031.00;;;34.89;24.66
22964;BME280;11648;49.306;6.934;2023-06-10T13:04:59;98030.16;;;34.42;24.75
22964;BME280;11648;49.306;6.934;2023-06-10T13:07:26;98024.78;;;34.09;24.72
22964;BME280;11648;49.306;6.934;2023-06-10T13:09:53;98023.41;;;34.30;25.71
22964;BME280;11648;49.306;6.934;2023-06-10T13:12:19;98020.22;;;34.49;25.92
22964;BME280;11648;49.306;6.934;2023-06-10T13:15:04;98021.59;;;34.92;25.08
22964;BME280;11648;49.306;6.934;2023-06-10T13:17:31;98011.59;;;35.52;24.74
22964;BME280;11648;49.306;6.934;2023-06-10T13:19:58;98015.72;;;35.48;24.34
22964;BME280;11648;49.306;6.934;2023-06-10T13:22:25;98007.00;;;35.67;23.78
22964;BME280;11648;49.306;6.934;2023-06-10T13:24:53;98008.44;;;34.87;23.92
22964;BME280;11648;49.306;6.934;2023-06-10T13:27:20;98006.34;;;34.66;24.12
22964;BME280;11648;49.306;6.934;2023-06-10T13:29:46;98011.75;;;34.36;24.68
22964;BME280;11648;49.306;6.934;2023-06-10T13:32:13;98017.28;;;34.11;25.31
22964;BME280;11648;49.306;6.934;2023-06-10T13:34:40;98009.00;;;33.64;25.28
22964;BME280;11648;49.306;6.934;2023-06-10T13:37:07;98007.09;;;33.81;26.46
22964;BME280;11648;49.306;6.934;2023-06-10T13:39:34;98003.28;;;34.22;26.26